Temperatura - Umidità - Pioggia orarie del 03-06-2020

Intensità - Direzione vento orarie del 03-06-2020

Dati orari da stazione meteo del 03-06-2020

Nome Stazione Data Ora Temperatura [°C] Umidità [%] Pioggia [mm] Intensità vento[km/h] Direzione vento [°]
Savigliano 02-06-2020 02:00 17.1 74.5 0 0 208
Savigliano 02-06-2020 03:00 15.2 80.1 0 0.4 183
Savigliano 02-06-2020 04:00 14.9 83.9 0 0 174
Savigliano 02-06-2020 05:00 14.5 86.3 0 0.4 172
Savigliano 02-06-2020 06:00 14.3 86.8 0 0 169
Savigliano 02-06-2020 07:00 14.6 84.7 0 0 169
Savigliano 02-06-2020 08:00 16.8 77.9 0 0.4 166
Savigliano 02-06-2020 09:00 19.7 69.9 0 1.4 158
Savigliano 02-06-2020 10:00 22.3 60.3 0 0.7 170
Savigliano 02-06-2020 11:00 23.6 55 0 1.4 48
Savigliano 02-06-2020 12:00 24.2 50.1 0 2.2 123
Savigliano 02-06-2020 13:00 25 45.4 0 2.5 121
Savigliano 02-06-2020 14:00 26.3 41.8 0 2.5 140
Savigliano 02-06-2020 15:00 25.7 39.7 0 3.6 97
Savigliano 02-06-2020 16:00 27.3 37.4 0 3.6 87
Savigliano 02-06-2020 17:00 27.5 33.6 0 2.2 100
Savigliano 02-06-2020 18:00 27.6 30.2 0 0.4 255
Savigliano 02-06-2020 19:00 25.3 40.2 0 1.4 206
Savigliano 02-06-2020 20:00 23 58.4 0 2.5 82
Savigliano 02-06-2020 21:00 22.2 61.5 0 1.4 148
Savigliano 02-06-2020 22:00 19.9 68.9 0 1.1 164
Savigliano 02-06-2020 23:00 19.7 74 0 0.7 153
Savigliano 03-06-2020 00:00 17.5 73.8 0 1.4 88
Savigliano 03-06-2020 01:00 17 78.6 0 1.1 248
Savigliano 03-06-2020 02:00 16.5 81.2 0 1.4 184
Savigliano 03-06-2020 03:00 14.6 86.5 0 3.2 227
Savigliano 03-06-2020 04:00 14.9 86.7 0 1.4 124
Savigliano 03-06-2020 05:00 14.8 86.7 0 1.4 94
Savigliano 03-06-2020 06:00 15 86.4 0 0.4 76
Savigliano 03-06-2020 07:00 14.6 86.6 0 1.4 130
Savigliano 03-06-2020 08:00 15.9 83.2 0 0 183
Savigliano 03-06-2020 09:00 19.2 71.7 0 0.4 169
Savigliano 03-06-2020 10:00 20.6 66.4 0 1.1 249
Savigliano 03-06-2020 11:00 22.3 61 0 1.4 197
Savigliano 03-06-2020 12:00 22.4 61.3 0 3.2 88
Savigliano 03-06-2020 13:00 22.4 60.2 0 4.7 80
Savigliano 03-06-2020 14:00 24 55.2 0 2.9 108
Savigliano 03-06-2020 15:00 22.7 58.8 0 3.2 84
Savigliano 03-06-2020 16:00 24.2 58 0 4 69
Savigliano 03-06-2020 17:00 22.3 0 0 8.3 96
Savigliano 03-06-2020 01:10 0 0 0.3 0 0
Savigliano 03-06-2020 01:15 0 0 0.1 0 0
Savigliano 03-06-2020 01:35 0 0 0.2 0 0
Savigliano 03-06-2020 01:40 0 0 0.4 0 0
Savigliano 03-06-2020 01:45 0 0 0.2 0 0
Savigliano 03-06-2020 01:50 0 0 0.1 0 0
Savigliano 03-06-2020 11:10 0 0 0.1 0 0

Riassuntivo giornaliero del 03-06-2020